createdAt,value
2017-05-01T00:00:23.741Z,0
2017-05-01T00:00:49.859Z,0
2017-05-01T00:01:16.023Z,0
2017-05-01T00:01:42.145Z,0
2017-05-01T00:02:08.282Z,0
2017-05-01T00:02:34.415Z,0
2017-05-01T00:03:00.542Z,0
2017-05-01T00:03:26.631Z,0
2017-05-01T00:03:52.762Z,0
2017-05-01T00:04:18.947Z,0
2017-05-01T00:04:45.083Z,0
2017-05-01T00:05:11.208Z,0
2017-05-01T00:05:37.341Z,0
2017-05-01T00:06:03.429Z,0
2017-05-01T00:06:29.558Z,0
2017-05-01T00:06:55.672Z,0
2017-05-01T00:07:21.776Z,0
2017-05-01T00:07:47.909Z,0
2017-05-01T00:08:14.099Z,0
2017-05-01T00:08:40.225Z,0
2017-05-01T00:09:06.384Z,0
2017-05-01T00:09:32.498Z,0
2017-05-01T00:09:58.617Z,0
2017-05-01T00:10:24.777Z,0
2017-05-01T00:10:50.898Z,0
2017-05-01T00:11:16.986Z,0
2017-05-01T00:11:43.094Z,0
2017-05-01T00:12:09.189Z,0
2017-05-01T00:12:35.305Z,0
2017-05-01T00:13:01.461Z,0
2017-05-01T00:13:27.617Z,0
2017-05-01T00:13:53.757Z,0
2017-05-01T00:14:19.966Z,0
2017-05-01T00:14:46.155Z,0
2017-05-01T00:15:12.291Z,0
2017-05-01T00:15:38.416Z,0
2017-05-01T00:16:04.577Z,0
2017-05-01T00:16:30.667Z,0
2017-05-01T00:16:56.771Z,0
2017-05-01T00:17:22.857Z,0
2017-05-01T00:17:48.962Z,0
2017-05-01T00:18:15.121Z,0
2017-05-01T00:18:41.260Z,0
2017-05-01T00:19:07.358Z,0
2017-05-01T00:19:33.494Z,0
2017-05-01T00:19:59.610Z,0
2017-05-01T00:20:25.730Z,0
2017-05-01T00:20:51.835Z,0
2017-05-01T00:21:17.990Z,0
2017-05-01T00:21:44.083Z,0
2017-05-01T00:22:10.186Z,0
2017-05-01T00:22:36.282Z,0
2017-05-01T00:23:02.384Z,0
2017-05-01T00:23:28.525Z,0
2017-05-01T00:23:54.671Z,0
2017-05-01T00:24:20.859Z,0
2017-05-01T00:24:46.979Z,0
2017-05-01T00:25:13.119Z,0
2017-05-01T00:25:39.255Z,0
2017-05-01T00:26:05.377Z,0
2017-05-01T00:26:31.464Z,0
2017-05-01T00:26:57.570Z,0
2017-05-01T00:27:23.668Z,0
2017-05-01T00:27:49.804Z,0
2017-05-01T00:28:15.986Z,0
2017-05-01T00:28:42.124Z,0
2017-05-01T00:29:08.257Z,0
2017-05-01T00:29:34.377Z,0
2017-05-01T00:30:00.492Z,0
2017-05-01T00:30:26.595Z,0
2017-05-01T00:30:52.721Z,0
2017-05-01T00:31:18.810Z,0
2017-05-01T00:31:44.910Z,0
2017-05-01T00:32:11.041Z,0
2017-05-01T00:32:37.175Z,0
2017-05-01T00:33:03.348Z,0
2017-05-01T00:33:29.506Z,0
2017-05-01T00:33:55.647Z,0
2017-05-01T00:34:21.773Z,0
2017-05-01T00:34:47.885Z,0
2017-05-01T00:35:14.036Z,0
2017-05-01T00:35:40.199Z,0
2017-05-01T00:36:06.309Z,0
2017-05-01T00:36:32.433Z,0
2017-05-01T00:36:58.539Z,0
2017-05-01T00:37:24.631Z,0
2017-05-01T00:37:50.776Z,0
2017-05-01T00:38:16.881Z,0
2017-05-01T00:38:43.000Z,0
2017-05-01T00:39:09.136Z,0
2017-05-01T00:39:35.292Z,0
2017-05-01T00:40:01.413Z,0
2017-05-01T00:40:27.547Z,0
2017-05-01T00:40:53.635Z,0
2017-05-01T00:41:19.780Z,0
2017-05-01T00:41:45.913Z,0
2017-05-01T00:42:12.029Z,0
2017-05-01T00:42:38.121Z,0
2017-05-01T00:43:04.307Z,0
2017-05-01T00:43:30.455Z,0
2017-05-01T00:43:56.545Z,0
2017-05-01T00:44:22.728Z,0
2017-05-01T00:44:48.853Z,0
2017-05-01T00:45:15.001Z,0
2017-05-01T00:45:41.121Z,0
2017-05-01T00:46:07.212Z,0
2017-05-01T00:46:33.350Z,0
2017-05-01T00:46:59.443Z,0
2017-05-01T00:47:25.566Z,0
2017-05-01T00:47:51.638Z,0
2017-05-01T00:48:17.795Z,0
2017-05-01T00:48:43.957Z,0
2017-05-01T00:49:10.113Z,0
2017-05-01T00:49:36.219Z,0
2017-05-01T00:50:02.361Z,0
2017-05-01T00:50:28.482Z,0
2017-05-01T00:50:54.602Z,0
2017-05-01T00:51:20.705Z,0
2017-05-01T00:51:46.805Z,0
2017-05-01T00:52:12.944Z,0
2017-05-01T00:52:39.070Z,0
2017-05-01T00:53:05.231Z,0
2017-05-01T00:53:31.318Z,0
2017-05-01T00:53:57.438Z,0
2017-05-01T00:54:23.573Z,0
2017-05-01T00:54:49.661Z,0
2017-05-01T00:55:15.830Z,0
2017-05-01T00:55:41.937Z,0
2017-05-01T00:56:08.029Z,0
2017-05-01T00:56:34.120Z,0
2017-05-01T00:57:00.256Z,0
2017-05-01T00:57:26.380Z,0
2017-05-01T00:57:52.544Z,0
2017-05-01T00:58:18.678Z,0
2017-05-01T00:58:44.830Z,0
2017-05-01T00:59:10.945Z,0
2017-05-01T00:59:37.095Z,0
2017-05-01T01:00:03.199Z,0
2017-05-01T01:00:29.287Z,0
2017-05-01T01:00:55.385Z,0
2017-05-01T01:01:21.487Z,0
2017-05-01T01:01:47.578Z,0
2017-05-01T01:02:13.731Z,0
2017-05-01T01:02:39.821Z,0
2017-05-01T01:03:05.947Z,0
2017-05-01T01:03:32.081Z,0
2017-05-01T01:03:58.220Z,0
2017-05-01T01:04:24.389Z,0
2017-05-01T01:04:50.496Z,0
2017-05-01T01:05:16.614Z,0
2017-05-01T01:05:42.731Z,0
2017-05-01T01:06:08.865Z,0
2017-05-01T01:06:34.990Z,0
2017-05-01T01:07:01.105Z,0
2017-05-01T01:07:27.256Z,0
2017-05-01T01:07:53.353Z,0
2017-05-01T01:08:19.543Z,0
2017-05-01T01:08:45.738Z,0
2017-05-01T01:09:11.880Z,0
2017-05-01T01:09:38.043Z,0
2017-05-01T01:10:04.213Z,0
2017-05-01T01:10:30.327Z,0
2017-05-01T01:10:56.464Z,0
2017-05-01T01:11:22.610Z,0
2017-05-01T01:11:48.726Z,0
2017-05-01T01:12:14.830Z,0
2017-05-01T01:12:40.958Z,0
2017-05-01T01:13:07.129Z,0
2017-05-01T01:13:33.251Z,0
2017-05-01T01:13:59.411Z,0
2017-05-01T01:14:25.520Z,0
2017-05-01T01:14:51.613Z,0
2017-05-01T01:15:17.755Z,0
2017-05-01T01:15:43.860Z,0
2017-05-01T01:16:09.983Z,0
2017-05-01T01:16:36.098Z,0
2017-05-01T01:17:02.197Z,0
2017-05-01T01:17:28.355Z,0
2017-05-01T01:17:54.466Z,0
2017-05-01T01:18:20.615Z,0
2017-05-01T01:18:46.763Z,0
2017-05-01T01:19:12.916Z,0
2017-05-01T01:19:39.044Z,0
2017-05-01T01:20:05.134Z,0
2017-05-01T01:20:31.233Z,0
2017-05-01T01:20:57.340Z,0
2017-05-01T01:21:23.453Z,0
2017-05-01T01:21:49.599Z,0
2017-05-01T01:22:15.733Z,0
2017-05-01T01:22:41.852Z,0
2017-05-01T01:23:07.946Z,0
2017-05-01T01:23:34.078Z,0
2017-05-01T01:24:00.198Z,0
2017-05-01T01:24:26.329Z,0
2017-05-01T01:24:52.444Z,0
2017-05-01T01:25:18.593Z,0
2017-05-01T01:25:44.698Z,0
2017-05-01T01:26:10.784Z,0
2017-05-01T01:26:36.885Z,0
2017-05-01T01:27:03.013Z,0
2017-05-01T01:27:29.107Z,0
2017-05-01T01:27:55.219Z,0
2017-05-01T01:28:21.350Z,0
2017-05-01T01:28:47.529Z,0
2017-05-01T01:29:13.693Z,0
2017-05-01T01:29:39.826Z,0
2017-05-01T01:30:05.919Z,0
2017-05-01T01:30:32.024Z,0
2017-05-01T01:30:58.118Z,0
2017-05-01T01:31:24.231Z,0
2017-05-01T01:31:50.337Z,0
2017-05-01T01:32:16.433Z,0
2017-05-01T01:32:42.572Z,0
2017-05-01T01:33:08.736Z,0
2017-05-01T01:33:34.890Z,0
2017-05-01T01:34:01.005Z,0
2017-05-01T01:34:27.129Z,0
2017-05-01T01:34:53.262Z,0
2017-05-01T01:35:19.355Z,0
2017-05-01T01:35:45.479Z,0
2017-05-01T01:36:11.592Z,0
2017-05-01T01:36:37.723Z,0
2017-05-01T01:37:03.848Z,0
2017-05-01T01:37:29.939Z,0
2017-05-01T01:37:56.040Z,0
2017-05-01T01:38:22.229Z,0
2017-05-01T01:38:48.368Z,0
2017-05-01T01:39:14.551Z,0
2017-05-01T01:39:40.709Z,0
2017-05-01T01:40:06.876Z,0
2017-05-01T01:40:32.993Z,0
2017-05-01T01:40:59.126Z,0
2017-05-01T01:41:25.246Z,0
2017-05-01T01:41:51.362Z,0
2017-05-01T01:42:17.468Z,0
2017-05-01T01:42:43.563Z,0
2017-05-01T01:43:09.699Z,0
2017-05-01T01:43:35.882Z,0
2017-05-01T01:44:02.008Z,0
2017-05-01T01:44:28.149Z,0
2017-05-01T01:44:54.277Z,0
2017-05-01T01:45:20.438Z,0
2017-05-01T01:45:46.550Z,0
2017-05-01T01:46:12.647Z,0
2017-05-01T01:46:38.794Z,0
2017-05-01T01:47:04.923Z,0
2017-05-01T01:47:31.079Z,0
2017-05-01T01:47:57.239Z,0
2017-05-01T01:48:23.366Z,0
2017-05-01T01:48:49.497Z,0
2017-05-01T01:49:15.658Z,0
2017-05-01T01:49:41.782Z,0
2017-05-01T01:50:07.921Z,0
2017-05-01T01:50:34.004Z,0
2017-05-01T01:51:00.149Z,0
2017-05-01T01:51:26.310Z,0
2017-05-01T01:51:52.431Z,0
2017-05-01T01:52:18.560Z,0
2017-05-01T01:52:44.698Z,0
2017-05-01T01:53:10.846Z,0
2017-05-01T01:53:36.979Z,0
2017-05-01T01:54:03.091Z,0
2017-05-01T01:54:29.286Z,0
2017-05-01T01:54:55.474Z,0
2017-05-01T01:55:21.596Z,0
2017-05-01T01:55:47.688Z,0
2017-05-01T01:56:13.820Z,0
2017-05-01T01:56:39.996Z,0
2017-05-01T01:57:06.082Z,0
2017-05-01T01:57:32.217Z,0
2017-05-01T01:57:58.385Z,0
2017-05-01T01:58:24.544Z,0
2017-05-01T01:58:50.636Z,0
2017-05-01T01:59:16.800Z,0
2017-05-01T01:59:42.965Z,0
2017-05-01T02:00:09.086Z,0
2017-05-01T02:00:35.176Z,0
2017-05-01T02:01:01.281Z,0
2017-05-01T02:01:27.380Z,0
2017-05-01T02:01:53.467Z,0
2017-05-01T02:02:19.647Z,0
2017-05-01T02:02:45.780Z,0
2017-05-01T02:03:11.939Z,0
2017-05-01T02:03:38.089Z,0
2017-05-01T02:04:04.224Z,0
2017-05-01T02:04:30.349Z,0
2017-05-01T02:04:56.449Z,0
2017-05-01T02:05:22.648Z,0
2017-05-01T02:05:48.727Z,0
2017-05-01T02:06:14.841Z,0
2017-05-01T02:06:40.950Z,0
2017-05-01T02:07:07.128Z,0
2017-05-01T02:07:33.217Z,0
2017-05-01T02:07:59.373Z,0
2017-05-01T02:08:25.499Z,0
2017-05-01T02:08:51.618Z,0
2017-05-01T02:09:17.764Z,0
2017-05-01T02:09:43.904Z,0
2017-05-01T02:10:10.038Z,0
2017-05-01T02:10:36.159Z,0
2017-05-01T02:11:02.296Z,0
2017-05-01T02:11:28.428Z,0
2017-05-01T02:11:54.525Z,0
2017-05-01T02:12:20.639Z,0
2017-05-01T02:12:46.741Z,0
2017-05-01T02:13:12.845Z,0
2017-05-01T02:13:38.955Z,0
2017-05-01T02:14:05.103Z,0
2017-05-01T02:14:31.223Z,0
2017-05-01T02:14:57.329Z,0
2017-05-01T02:15:23.483Z,0
2017-05-01T02:15:49.572Z,0
2017-05-01T02:16:15.674Z,0
2017-05-01T02:16:41.806Z,0
2017-05-01T02:17:07.893Z,0
2017-05-01T02:17:34.015Z,0
2017-05-01T02:18:00.176Z,0
2017-05-01T02:18:26.289Z,0
2017-05-01T02:18:52.434Z,0
2017-05-01T02:19:18.569Z,0
2017-05-01T02:19:44.717Z,0
2017-05-01T02:20:10.869Z,0
2017-05-01T02:20:36.980Z,0
2017-05-01T02:21:03.078Z,0
2017-05-01T02:21:29.211Z,0
2017-05-01T02:21:55.300Z,0
2017-05-01T02:22:21.421Z,0
2017-05-01T02:22:47.526Z,0
2017-05-01T02:23:13.617Z,0
2017-05-01T02:23:39.740Z,0
2017-05-01T02:24:05.868Z,0
2017-05-01T02:24:32.023Z,0
2017-05-01T02:24:58.128Z,0
2017-05-01T02:25:24.261Z,0
2017-05-01T02:25:50.444Z,0
2017-05-01T02:26:16.531Z,0
2017-05-01T02:26:42.657Z,0
2017-05-01T02:27:08.761Z,0
2017-05-01T02:27:34.880Z,0
2017-05-01T02:28:01.001Z,0
2017-05-01T02:28:27.134Z,0
2017-05-01T02:28:53.224Z,0
2017-05-01T02:29:19.342Z,0
2017-05-01T02:29:45.472Z,0
2017-05-01T02:30:11.644Z,0
2017-05-01T02:30:37.733Z,0
2017-05-01T02:31:03.836Z,0
2017-05-01T02:31:29.957Z,0
2017-05-01T02:31:56.062Z,0
2017-05-01T02:32:22.152Z,0
2017-05-01T02:32:48.296Z,0
2017-05-01T02:33:14.427Z,0
2017-05-01T02:33:40.521Z,0
2017-05-01T02:34:06.638Z,0
2017-05-01T02:34:32.821Z,0
2017-05-01T02:34:58.971Z,0
2017-05-01T02:35:25.060Z,0
2017-05-01T02:35:51.222Z,0
2017-05-01T02:36:17.320Z,0
2017-05-01T02:36:43.416Z,0
2017-05-01T02:37:09.534Z,0
2017-05-01T02:37:35.646Z,0
2017-05-01T02:38:01.753Z,0
2017-05-01T02:38:27.847Z,0
2017-05-01T02:38:53.960Z,0
2017-05-01T02:39:20.117Z,0
2017-05-01T02:39:46.278Z,0
2017-05-01T02:40:12.357Z,0
2017-05-01T02:40:38.458Z,0
2017-05-01T02:41:04.561Z,0
2017-05-01T02:41:30.646Z,0
2017-05-01T02:41:56.768Z,0
2017-05-01T02:42:22.886Z,0
2017-05-01T02:42:49.020Z,0
2017-05-01T02:43:15.172Z,0
2017-05-01T02:43:41.313Z,0
2017-05-01T02:44:07.465Z,0
2017-05-01T02:44:33.597Z,0
2017-05-01T02:44:59.741Z,0
2017-05-01T02:45:25.857Z,0
2017-05-01T02:45:51.988Z,0
2017-05-01T02:46:18.075Z,0
2017-05-01T02:46:44.196Z,0
2017-05-01T02:47:10.366Z,0
2017-05-01T02:47:36.447Z,0
2017-05-01T02:48:02.658Z,0
2017-05-01T02:48:28.793Z,0
2017-05-01T02:48:54.891Z,0
2017-05-01T02:49:21.049Z,0
2017-05-01T02:49:47.164Z,0
2017-05-01T02:50:13.285Z,0
2017-05-01T02:50:39.417Z,0
2017-05-01T02:51:05.534Z,0
2017-05-01T02:51:31.647Z,0
2017-05-01T02:51:57.782Z,0
2017-05-01T02:52:23.932Z,0
2017-05-01T02:52:50.071Z,0
2017-05-01T02:53:16.152Z,0
2017-05-01T02:53:42.294Z,0
2017-05-01T02:54:08.515Z,0
2017-05-01T02:54:34.603Z,0
2017-05-01T02:55:00.691Z,0
2017-05-01T02:55:26.799Z,0
2017-05-01T02:55:52.894Z,0
2017-05-01T02:56:18.984Z,0
2017-05-01T02:56:45.087Z,0
2017-05-01T02:57:11.185Z,0
2017-05-01T02:57:37.299Z,0
2017-05-01T02:58:03.451Z,0
2017-05-01T02:58:29.639Z,0
2017-05-01T02:58:55.753Z,0
2017-05-01T02:59:21.875Z,0
2017-05-01T02:59:47.963Z,0
2017-05-01T03:00:14.096Z,0
2017-05-01T03:00:40.222Z,0
2017-05-01T03:01:06.311Z,0
2017-05-01T03:01:32.412Z,0
2017-05-01T03:01:58.549Z,0
2017-05-01T03:02:24.636Z,0
2017-05-01T03:02:50.760Z,0
2017-05-01T03:03:16.892Z,0
2017-05-01T03:03:43.030Z,0
2017-05-01T03:04:09.151Z,0
2017-05-01T03:04:35.301Z,0
2017-05-01T03:05:01.402Z,0
2017-05-01T03:05:27.534Z,0
2017-05-01T03:05:53.646Z,0
2017-05-01T03:06:19.772Z,0
2017-05-01T03:06:45.899Z,0
2017-05-01T03:07:12.038Z,0
2017-05-01T03:07:38.135Z,0
2017-05-01T03:08:04.294Z,0
2017-05-01T03:08:30.438Z,0
2017-05-01T03:08:56.573Z,0
2017-05-01T03:09:22.708Z,0
2017-05-01T03:09:48.858Z,0
2017-05-01T03:10:14.978Z,0
2017-05-01T03:10:41.105Z,0
2017-05-01T03:11:07.232Z,0
2017-05-01T03:11:33.344Z,0
2017-05-01T03:11:59.445Z,0
2017-05-01T03:12:25.584Z,0
2017-05-01T03:12:51.713Z,0
2017-05-01T03:13:17.884Z,0
2017-05-01T03:13:44.042Z,0
2017-05-01T03:14:10.159Z,0
2017-05-01T03:14:36.281Z,0
2017-05-01T03:15:02.412Z,0
2017-05-01T03:15:28.502Z,0
2017-05-01T03:15:54.607Z,0
2017-05-01T03:16:20.692Z,0
2017-05-01T03:16:46.792Z,0
2017-05-01T03:17:12.922Z,0
2017-05-01T03:17:39.035Z,0
2017-05-01T03:18:05.154Z,0
2017-05-01T03:18:31.260Z,0
2017-05-01T03:18:57.353Z,0
2017-05-01T03:19:23.442Z,4
2017-05-01T03:19:49.547Z,4
2017-05-01T03:20:15.700Z,4
2017-05-01T03:20:41.789Z,4
2017-05-01T03:21:07.939Z,0
2017-05-01T03:21:34.034Z,0
2017-05-01T03:22:00.138Z,0
2017-05-01T03:22:26.227Z,0
2017-05-01T03:22:52.340Z,0
2017-05-01T03:23:18.505Z,0
2017-05-01T03:23:44.627Z,4
2017-05-01T03:24:10.767Z,4
2017-05-01T03:24:36.978Z,4
2017-05-01T03:25:03.132Z,4
2017-05-01T03:25:29.243Z,4
2017-05-01T03:25:55.396Z,0
2017-05-01T03:26:21.527Z,0
2017-05-01T03:26:47.617Z,4
2017-05-01T03:27:13.768Z,4
2017-05-01T03:27:39.857Z,4
2017-05-01T03:28:06.015Z,4
2017-05-01T03:28:32.169Z,8
2017-05-01T03:28:58.358Z,4
2017-05-01T03:29:24.508Z,4
2017-05-01T03:29:50.612Z,4
2017-05-01T03:30:16.700Z,8
2017-05-01T03:30:42.828Z,4
2017-05-01T03:31:08.958Z,4
2017-05-01T03:31:35.072Z,8
2017-05-01T03:32:01.167Z,8
2017-05-01T03:32:27.346Z,8
2017-05-01T03:32:53.504Z,8
2017-05-01T03:33:19.687Z,8
2017-05-01T03:33:45.796Z,8
2017-05-01T03:34:11.894Z,12
2017-05-01T03:34:38.080Z,12
2017-05-01T03:35:04.221Z,12
2017-05-01T03:35:30.338Z,12
2017-05-01T03:35:56.472Z,12
2017-05-01T03:36:22.616Z,16
2017-05-01T03:36:48.729Z,16
2017-05-01T03:37:14.837Z,16
2017-05-01T03:37:40.960Z,20
2017-05-01T03:38:07.139Z,20
2017-05-01T03:38:33.252Z,20
2017-05-01T03:38:59.373Z,20
2017-05-01T03:39:25.530Z,20
2017-05-01T03:39:51.673Z,24
2017-05-01T03:40:17.812Z,24
2017-05-01T03:40:43.946Z,24
2017-05-01T03:41:10.070Z,28
2017-05-01T03:41:36.158Z,28
2017-05-01T03:42:02.286Z,32
2017-05-01T03:42:28.413Z,32
2017-05-01T03:42:54.550Z,36
2017-05-01T03:43:20.702Z,36
2017-05-01T03:43:46.813Z,40
2017-05-01T03:44:12.950Z,44
2017-05-01T03:44:39.099Z,44
2017-05-01T03:45:05.211Z,44
2017-05-01T03:45:31.315Z,48
2017-05-01T03:45:57.442Z,52
2017-05-01T03:46:23.554Z,52
2017-05-01T03:46:49.656Z,56
2017-05-01T03:47:15.786Z,60
2017-05-01T03:47:41.872Z,64
2017-05-01T03:48:08.021Z,68
2017-05-01T03:48:34.180Z,72
2017-05-01T03:49:00.293Z,76
2017-05-01T03:49:26.422Z,76
2017-05-01T03:49:52.510Z,80
2017-05-01T03:50:18.635Z,88
2017-05-01T03:50:44.767Z,88
2017-05-01T03:51:10.851Z,92
2017-05-01T03:51:36.950Z,100
2017-05-01T03:52:03.110Z,100
2017-05-01T03:52:29.226Z,104
2017-05-01T03:52:55.370Z,108
2017-05-01T03:53:21.528Z,108
2017-05-01T03:53:47.649Z,112
2017-05-01T03:54:13.764Z,116
2017-05-01T03:54:39.895Z,120
2017-05-01T03:55:06.045Z,124
2017-05-01T03:55:32.136Z,128
2017-05-01T03:55:58.313Z,132
2017-05-01T03:56:24.410Z,132
2017-05-01T03:56:50.498Z,140
2017-05-01T03:57:16.624Z,144
2017-05-01T03:57:42.757Z,148
2017-05-01T03:58:08.920Z,152
2017-05-01T03:58:35.044Z,156
2017-05-01T03:59:01.176Z,164
2017-05-01T03:59:27.342Z,172
2017-05-01T03:59:53.459Z,176
2017-05-01T04:00:19.606Z,184
2017-05-01T04:00:45.705Z,188
2017-05-01T04:01:11.837Z,192
2017-05-01T04:01:37.924Z,200
2017-05-01T04:02:04.045Z,204
2017-05-01T04:02:30.208Z,212
2017-05-01T04:02:56.350Z,220
2017-05-01T04:03:22.494Z,224
2017-05-01T04:03:48.653Z,232
2017-05-01T04:04:14.823Z,240
2017-05-01T04:04:40.912Z,252
2017-05-01T04:05:07.046Z,264
2017-05-01T04:05:33.143Z,272
2017-05-01T04:05:59.244Z,284
2017-05-01T04:06:25.361Z,300
2017-05-01T04:06:51.458Z,312
2017-05-01T04:07:17.563Z,328
2017-05-01T04:07:43.708Z,340
2017-05-01T04:08:09.845Z,360
2017-05-01T04:08:35.952Z,376
2017-05-01T04:09:02.102Z,392
2017-05-01T04:09:28.239Z,416
2017-05-01T04:09:54.397Z,436
2017-05-01T04:10:20.547Z,456
2017-05-01T04:10:46.638Z,480
2017-05-01T04:11:12.763Z,508
2017-05-01T04:11:38.902Z,532
2017-05-01T04:12:05.065Z,560
2017-05-01T04:12:31.188Z,592
2017-05-01T04:12:57.353Z,624
2017-05-01T04:13:23.537Z,656
2017-05-01T04:13:49.690Z,692
2017-05-01T04:14:15.832Z,732
2017-05-01T04:14:41.979Z,764
2017-05-01T04:15:08.166Z,804
2017-05-01T04:15:34.247Z,832
2017-05-01T04:16:00.369Z,860
2017-05-01T04:16:26.475Z,880
2017-05-01T04:16:52.611Z,900
2017-05-01T04:17:18.712Z,920
2017-05-01T04:17:44.826Z,932
2017-05-01T04:18:10.977Z,944
2017-05-01T04:18:37.136Z,956
2017-05-01T04:19:03.270Z,968
2017-05-01T04:19:29.443Z,972
2017-05-01T04:19:55.550Z,976
2017-05-01T04:20:21.637Z,976
2017-05-01T04:20:47.735Z,972
2017-05-01T04:21:13.868Z,968
2017-05-01T04:21:39.959Z,968
2017-05-01T04:22:06.097Z,968
2017-05-01T04:22:32.253Z,968
2017-05-01T04:22:58.377Z,968
2017-05-01T04:23:24.536Z,968
2017-05-01T04:23:50.626Z,976
2017-05-01T04:24:16.741Z,980
2017-05-01T04:24:42.874Z,996
2017-05-01T04:25:09.050Z,1004
2017-05-01T04:25:35.137Z,1020
2017-05-01T04:26:01.272Z,1036
2017-05-01T04:26:27.366Z,1060
2017-05-01T04:26:53.506Z,1080
2017-05-01T04:27:19.609Z,1100
2017-05-01T04:27:45.763Z,1124
2017-05-01T04:28:11.913Z,1152
2017-05-01T04:28:38.085Z,1176
2017-05-01T04:29:04.200Z,1204
2017-05-01T04:29:30.329Z,1236
2017-05-01T04:29:56.482Z,1268
2017-05-01T04:30:22.592Z,1304
2017-05-01T04:30:48.698Z,1348
2017-05-01T04:31:14.796Z,1396
2017-05-01T04:31:40.910Z,1448
2017-05-01T04:32:07.011Z,1496
2017-05-01T04:32:33.197Z,1544
2017-05-01T04:32:59.332Z,1584
2017-05-01T04:33:25.479Z,1620
2017-05-01T04:33:51.626Z,1648
2017-05-01T04:34:17.731Z,1672
2017-05-01T04:34:43.857Z,1688
2017-05-01T04:35:09.970Z,1712
2017-05-01T04:35:36.069Z,1736
2017-05-01T04:36:02.175Z,1752
2017-05-01T04:36:28.284Z,1760
2017-05-01T04:36:54.407Z,1760
2017-05-01T04:37:20.539Z,1760
2017-05-01T04:37:46.702Z,1760
2017-05-01T04:38:12.824Z,1760
2017-05-01T04:38:38.984Z,1764
2017-05-01T04:39:05.103Z,1780
2017-05-01T04:39:31.193Z,1800
2017-05-01T04:39:57.330Z,1824
2017-05-01T04:40:23.450Z,1856
2017-05-01T04:40:49.541Z,1876
2017-05-01T04:41:15.674Z,1900
2017-05-01T04:41:41.798Z,1924
2017-05-01T04:42:07.888Z,1952
2017-05-01T04:42:34.042Z,1988
2017-05-01T04:43:00.201Z,2032
2017-05-01T04:43:26.310Z,2080
2017-05-01T04:43:52.409Z,2132
2017-05-01T04:44:18.569Z,2192
2017-05-01T04:44:44.657Z,2256
2017-05-01T04:45:10.841Z,2316
2017-05-01T04:45:36.930Z,2380
2017-05-01T04:46:03.079Z,2444
2017-05-01T04:46:29.183Z,2520
2017-05-01T04:46:55.270Z,2592
2017-05-01T04:47:21.367Z,2672
2017-05-01T04:47:47.472Z,2752
2017-05-01T04:48:13.613Z,2836
2017-05-01T04:48:39.733Z,2920
2017-05-01T04:49:05.868Z,3016
2017-05-01T04:49:31.990Z,3120
2017-05-01T04:49:58.077Z,3224
2017-05-01T04:50:24.182Z,3336
2017-05-01T04:50:50.325Z,3460
2017-05-01T04:51:16.459Z,3588
2017-05-01T04:51:42.543Z,3708
2017-05-01T04:52:08.665Z,3808
2017-05-01T04:52:34.796Z,3892
2017-05-01T04:53:00.887Z,3944
2017-05-01T04:53:27.028Z,3972
2017-05-01T04:53:53.162Z,3968
2017-05-01T04:54:19.313Z,3944
2017-05-01T04:54:45.421Z,3920
2017-05-01T04:55:11.556Z,3904
2017-05-01T04:55:37.680Z,3916
2017-05-01T04:56:03.803Z,3936
2017-05-01T04:56:29.894Z,3972
2017-05-01T04:56:55.984Z,4028
2017-05-01T04:57:22.091Z,4092
2017-05-01T04:57:48.249Z,4140
2017-05-01T04:58:14.378Z,4172
2017-05-01T04:58:40.538Z,4188
2017-05-01T04:59:06.692Z,4200
2017-05-01T04:59:32.854Z,4208
2017-05-01T04:59:59.003Z,4212
2017-05-01T05:00:25.135Z,4212
2017-05-01T05:00:51.220Z,4196
2017-05-01T05:01:17.342Z,4184
2017-05-01T05:01:43.435Z,4164
2017-05-01T05:02:09.564Z,4136
2017-05-01T05:02:35.716Z,4120
2017-05-01T05:03:01.876Z,4116
2017-05-01T05:03:28.005Z,4120
2017-05-01T05:03:54.166Z,4128
2017-05-01T05:04:20.275Z,4140
2017-05-01T05:04:46.399Z,4152
2017-05-01T05:05:12.532Z,4168
2017-05-01T05:05:38.622Z,4196
2017-05-01T05:06:04.717Z,4224
2017-05-01T05:06:30.854Z,4264
2017-05-01T05:06:56.942Z,4300
2017-05-01T05:07:23.047Z,4348
2017-05-01T05:07:49.165Z,4408
2017-05-01T05:08:15.356Z,4464
2017-05-01T05:08:41.544Z,4532
2017-05-01T05:09:07.659Z,4604
2017-05-01T05:09:33.780Z,4676
2017-05-01T05:09:59.886Z,4752
2017-05-01T05:10:26.007Z,4832
2017-05-01T05:10:52.142Z,4916
2017-05-01T05:11:18.274Z,5012
2017-05-01T05:11:44.370Z,5104
2017-05-01T05:12:10.516Z,5200
2017-05-01T05:12:36.666Z,5292
2017-05-01T05:13:02.811Z,5396
2017-05-01T05:13:28.943Z,5492
2017-05-01T05:13:55.089Z,5600
2017-05-01T05:14:21.178Z,5708
2017-05-01T05:14:47.338Z,5816
2017-05-01T05:15:13.461Z,5928
2017-05-01T05:15:39.550Z,6044
2017-05-01T05:16:05.655Z,6156
2017-05-01T05:16:31.782Z,6268
2017-05-01T05:16:57.871Z,6364
2017-05-01T05:17:23.998Z,6452
2017-05-01T05:17:50.130Z,6528
2017-05-01T05:18:16.249Z,6604
2017-05-01T05:18:42.401Z,6664
2017-05-01T05:19:08.565Z,6728
2017-05-01T05:19:34.721Z,6776
2017-05-01T05:20:00.846Z,6820
2017-05-01T05:20:26.957Z,6860
2017-05-01T05:20:53.084Z,6888
2017-05-01T05:21:19.217Z,6912
2017-05-01T05:21:45.329Z,6932
2017-05-01T05:22:11.451Z,6948
2017-05-01T05:22:37.557Z,6960
2017-05-01T05:23:03.673Z,6976
2017-05-01T05:23:29.793Z,6984
2017-05-01T05:23:56.014Z,6988
2017-05-01T05:24:22.074Z,6988
2017-05-01T05:24:48.188Z,6996
2017-05-01T05:25:14.319Z,7004
2017-05-01T05:25:40.443Z,7012
2017-05-01T05:26:06.533Z,7028
2017-05-01T05:26:32.664Z,7044
2017-05-01T05:26:58.764Z,7056
2017-05-01T05:27:24.876Z,7068
2017-05-01T05:27:51.034Z,7076
2017-05-01T05:28:17.139Z,7080
2017-05-01T05:28:43.246Z,7088
2017-05-01T05:29:09.369Z,7096
2017-05-01T05:29:35.513Z,7092
2017-05-01T05:30:01.643Z,7092
2017-05-01T05:30:27.741Z,7084
2017-05-01T05:30:53.858Z,7080
2017-05-01T05:31:19.985Z,7072
2017-05-01T05:31:46.116Z,7060
2017-05-01T05:32:12.227Z,7076
2017-05-01T05:32:38.325Z,7088
2017-05-01T05:33:04.484Z,7104
2017-05-01T05:33:30.599Z,7112
2017-05-01T05:33:56.744Z,7112
2017-05-01T05:34:22.900Z,7100
2017-05-01T05:34:49.022Z,7076
2017-05-01T05:35:15.128Z,7056
2017-05-01T05:35:41.291Z,7036
2017-05-01T05:36:07.388Z,7012
2017-05-01T05:36:33.495Z,6988
2017-05-01T05:36:59.611Z,6960
2017-05-01T05:37:25.707Z,6944
2017-05-01T05:37:51.865Z,6936
2017-05-01T05:38:18.009Z,6924
2017-05-01T05:38:44.098Z,6916
2017-05-01T05:39:10.234Z,6912
2017-05-01T05:39:36.357Z,6908
2017-05-01T05:40:02.467Z,6888
2017-05-01T05:40:28.595Z,6884
2017-05-01T05:40:54.686Z,6876
2017-05-01T05:41:20.790Z,6864
2017-05-01T05:41:46.882Z,6860
2017-05-01T05:42:12.995Z,6868
2017-05-01T05:42:39.132Z,6880
2017-05-01T05:43:05.282Z,6896
2017-05-01T05:43:31.373Z,6916
2017-05-01T05:43:57.531Z,6956
2017-05-01T05:44:23.683Z,6996
2017-05-01T05:44:49.821Z,7064
2017-05-01T05:45:15.946Z,7132
2017-05-01T05:45:42.079Z,7184
2017-05-01T05:46:08.171Z,7236
2017-05-01T05:46:34.294Z,7296
2017-05-01T05:47:00.410Z,7360
2017-05-01T05:47:26.514Z,7432
2017-05-01T05:47:52.670Z,7504
2017-05-01T05:48:18.810Z,7564
2017-05-01T05:48:44.988Z,7616
2017-05-01T05:49:11.093Z,7664
2017-05-01T05:49:37.201Z,7700
2017-05-01T05:50:03.326Z,7736
2017-05-01T05:50:29.457Z,7772
2017-05-01T05:50:55.545Z,7812
2017-05-01T05:51:21.664Z,7848
2017-05-01T05:51:47.759Z,7896
2017-05-01T05:52:13.885Z,7940
2017-05-01T05:52:40.046Z,7980
2017-05-01T05:53:06.179Z,8016
2017-05-01T05:53:32.303Z,8040
2017-05-01T05:53:58.487Z,8056
2017-05-01T05:54:24.630Z,8052
2017-05-01T05:54:50.723Z,8036
2017-05-01T05:55:16.829Z,7988
2017-05-01T05:55:42.920Z,7928
2017-05-01T05:56:09.033Z,7856
2017-05-01T05:56:35.166Z,7776
2017-05-01T05:57:01.267Z,7696
2017-05-01T05:57:27.415Z,7620
2017-05-01T05:57:53.504Z,7552
2017-05-01T05:58:19.651Z,7496
2017-05-01T05:58:45.809Z,7444
2017-05-01T05:59:11.980Z,7408
2017-05-01T05:59:38.092Z,7376
2017-05-01T06:00:04.257Z,7352
2017-05-01T06:00:30.375Z,7332
2017-05-01T06:00:56.489Z,7324
2017-05-01T06:01:22.648Z,7324
2017-05-01T06:01:48.745Z,7328
2017-05-01T06:02:14.887Z,7340
2017-05-01T06:02:40.988Z,7340
2017-05-01T06:03:07.079Z,7336
2017-05-01T06:03:33.240Z,7324
2017-05-01T06:03:59.364Z,7320
2017-05-01T06:04:25.480Z,7316
2017-05-01T06:04:51.659Z,7312
2017-05-01T06:05:17.786Z,7324
2017-05-01T06:05:43.877Z,7340
2017-05-01T06:06:10.004Z,7360
2017-05-01T06:06:36.137Z,7396
2017-05-01T06:07:02.225Z,7436
2017-05-01T06:07:28.348Z,7488
2017-05-01T06:07:54.481Z,7552
2017-05-01T06:08:20.595Z,7608
2017-05-01T06:08:46.690Z,7652
2017-05-01T06:09:12.822Z,7692
2017-05-01T06:09:38.968Z,7720
2017-05-01T06:10:05.084Z,7732
2017-05-01T06:10:31.243Z,7748
2017-05-01T06:10:57.367Z,7760
2017-05-01T06:11:23.454Z,7792